sensor_id;sensor_type;location;lat;lon;timestamp;temperature;humidity
18658;DHT22;9458;50.942;5.074;2023-12-14T00:00:07;9.20;99.90
18658;DHT22;9458;50.942;5.074;2023-12-14T00:02:34;9.30;99.90
18658;DHT22;9458;50.942;5.074;2023-12-14T00:05:01;9.30;99.90
18658;DHT22;9458;50.942;5.074;2023-12-14T00:07:30;9.40;99.90
18658;DHT22;9458;50.942;5.074;2023-12-14T00:09:56;9.40;99.90
18658;DHT22;9458;50.942;5.074;2023-12-14T00:12:24;9.40;99.90
18658;DHT22;9458;50.942;5.074;2023-12-14T00:14:50;9.50;99.90
18658;DHT22;9458;50.942;5.074;2023-12-14T00:17:17;9.50;99.90
18658;DHT22;9458;50.942;5.074;2023-12-14T00:19:44;9.50;99.90
18658;DHT22;9458;50.942;5.074;2023-12-14T00:22:11;9.40;99.90
18658;DHT22;9458;50.942;5.074;2023-12-14T00:24:39;9.40;99.90
18658;DHT22;9458;50.942;5.074;2023-12-14T00:27:06;9.40;99.90
18658;DHT22;9458;50.942;5.074;2023-12-14T00:29:33;9.40;99.90
18658;DHT22;9458;50.942;5.074;2023-12-14T00:31:59;9.40;99.90
18658;DHT22;9458;50.942;5.074;2023-12-14T00:34:26;9.50;99.90
18658;DHT22;9458;50.942;5.074;2023-12-14T00:36:53;9.50;99.90
18658;DHT22;9458;50.942;5.074;2023-12-14T00:39:20;9.50;99.90
18658;DHT22;9458;50.942;5.074;2023-12-14T00:41:48;9.50;99.90
18658;DHT22;9458;50.942;5.074;2023-12-14T00:44:15;9.50;99.90
18658;DHT22;9458;50.942;5.074;2023-12-14T00:46:42;9.60;99.90
18658;DHT22;9458;50.942;5.074;2023-12-14T00:49:08;9.50;99.90
18658;DHT22;9458;50.942;5.074;2023-12-14T00:51:35;9.50;99.90
18658;DHT22;9458;50.942;5.074;2023-12-14T00:54:03;9.50;99.90
18658;DHT22;9458;50.942;5.074;2023-12-14T00:56:30;9.40;99.90
18658;DHT22;9458;50.942;5.074;2023-12-14T00:58:58;9.40;99.90
18658;DHT22;9458;50.942;5.074;2023-12-14T01:01:25;9.40;99.90
18658;DHT22;9458;50.942;5.074;2023-12-14T01:03:52;9.50;99.90
18658;DHT22;9458;50.942;5.074;2023-12-14T01:06:18;9.60;99.90
18658;DHT22;9458;50.942;5.074;2023-12-14T01:08:45;9.50;99.90
18658;DHT22;9458;50.942;5.074;2023-12-14T01:11:13;9.50;99.90
18658;DHT22;9458;50.942;5.074;2023-12-14T01:13:40;9.50;99.90
18658;DHT22;9458;50.942;5.074;2023-12-14T01:16:08;9.50;99.90
18658;DHT22;9458;50.942;5.074;2023-12-14T01:18:35;9.50;99.90
18658;DHT22;9458;50.942;5.074;2023-12-14T01:21:02;9.50;99.90
18658;DHT22;9458;50.942;5.074;2023-12-14T01:23:28;9.50;99.90
18658;DHT22;9458;50.942;5.074;2023-12-14T01:25:55;9.40;99.90
18658;DHT22;9458;50.942;5.074;2023-12-14T01:28:22;9.50;99.90
18658;DHT22;9458;50.942;5.074;2023-12-14T01:30:48;9.40;99.90
18658;DHT22;9458;50.942;5.074;2023-12-14T01:33:17;9.50;99.90
18658;DHT22;9458;50.942;5.074;2023-12-14T01:35:45;9.60;99.90
18658;DHT22;9458;50.942;5.074;2023-12-14T01:38:11;9.50;99.90
18658;DHT22;9458;50.942;5.074;2023-12-14T01:40:39;9.50;99.90
18658;DHT22;9458;50.942;5.074;2023-12-14T01:43:06;9.40;99.90
18658;DHT22;9458;50.942;5.074;2023-12-14T01:45:33;9.30;99.90
18658;DHT22;9458;50.942;5.074;2023-12-14T01:48:00;9.30;99.90
18658;DHT22;9458;50.942;5.074;2023-12-14T01:50:30;9.30;99.90
18658;DHT22;9458;50.942;5.074;2023-12-14T01:52:57;9.20;99.90
18658;DHT22;9458;50.942;5.074;2023-12-14T01:55:23;9.10;99.90
18658;DHT22;9458;50.942;5.074;2023-12-14T01:57:52;9.10;99.90
18658;DHT22;9458;50.942;5.074;2023-12-14T02:00:21;9.00;99.90
18658;DHT22;9458;50.942;5.074;2023-12-14T02:02:48;9.00;99.90
18658;DHT22;9458;50.942;5.074;2023-12-14T02:05:15;8.90;99.90
18658;DHT22;9458;50.942;5.074;2023-12-14T02:07:43;8.90;99.90
18658;DHT22;9458;50.942;5.074;2023-12-14T02:10:10;8.70;99.90
18658;DHT22;9458;50.942;5.074;2023-12-14T02:12:37;8.60;99.90
18658;DHT22;9458;50.942;5.074;2023-12-14T02:15:04;8.60;99.90
18658;DHT22;9458;50.942;5.074;2023-12-14T02:17:31;8.50;99.90
18658;DHT22;9458;50.942;5.074;2023-12-14T02:19:58;8.50;99.90
18658;DHT22;9458;50.942;5.074;2023-12-14T02:22:26;8.50;99.90
18658;DHT22;9458;50.942;5.074;2023-12-14T02:24:55;8.50;99.90
18658;DHT22;9458;50.942;5.074;2023-12-14T02:27:21;8.60;99.90
18658;DHT22;9458;50.942;5.074;2023-12-14T02:29:48;8.60;99.90
18658;DHT22;9458;50.942;5.074;2023-12-14T02:32:15;8.80;99.90
18658;DHT22;9458;50.942;5.074;2023-12-14T02:34:42;8.60;99.90
18658;DHT22;9458;50.942;5.074;2023-12-14T02:37:09;8.60;99.90
18658;DHT22;9458;50.942;5.074;2023-12-14T02:39:36;8.50;99.90
18658;DHT22;9458;50.942;5.074;2023-12-14T02:42:05;8.60;99.90
18658;DHT22;9458;50.942;5.074;2023-12-14T02:44:32;8.30;99.90
18658;DHT22;9458;50.942;5.074;2023-12-14T02:46:58;8.40;99.90
18658;DHT22;9458;50.942;5.074;2023-12-14T02:49:25;8.40;99.90
18658;DHT22;9458;50.942;5.074;2023-12-14T02:51:52;8.40;99.90
18658;DHT22;9458;50.942;5.074;2023-12-14T02:54:19;8.30;99.90
18658;DHT22;9458;50.942;5.074;2023-12-14T02:56:46;8.40;99.90
18658;DHT22;9458;50.942;5.074;2023-12-14T02:59:14;8.40;99.90
18658;DHT22;9458;50.942;5.074;2023-12-14T03:01:41;8.30;99.90
18658;DHT22;9458;50.942;5.074;2023-12-14T03:04:08;8.30;99.90
18658;DHT22;9458;50.942;5.074;2023-12-14T03:06:35;8.20;99.90
18658;DHT22;9458;50.942;5.074;2023-12-14T03:09:02;8.30;99.90
18658;DHT22;9458;50.942;5.074;2023-12-14T03:11:28;8.40;99.90
18658;DHT22;9458;50.942;5.074;2023-12-14T03:13:55;8.50;99.90
18658;DHT22;9458;50.942;5.074;2023-12-14T03:16:24;8.30;99.90
18658;DHT22;9458;50.942;5.074;2023-12-14T03:18:50;8.20;99.90
18658;DHT22;9458;50.942;5.074;2023-12-14T03:21:18;8.40;99.90
18658;DHT22;9458;50.942;5.074;2023-12-14T03:23:46;8.50;99.90
18658;DHT22;9458;50.942;5.074;2023-12-14T03:26:12;8.40;99.90
18658;DHT22;9458;50.942;5.074;2023-12-14T03:28:39;8.30;99.90
18658;DHT22;9458;50.942;5.074;2023-12-14T03:31:06;8.30;99.90
18658;DHT22;9458;50.942;5.074;2023-12-14T03:33:34;8.30;99.90
18658;DHT22;9458;50.942;5.074;2023-12-14T03:36:02;8.30;99.90
18658;DHT22;9458;50.942;5.074;2023-12-14T03:38:29;8.20;99.90
18658;DHT22;9458;50.942;5.074;2023-12-14T03:40:55;8.10;99.90
18658;DHT22;9458;50.942;5.074;2023-12-14T03:43:23;8.00;99.90
18658;DHT22;9458;50.942;5.074;2023-12-14T03:45:49;8.10;99.90
18658;DHT22;9458;50.942;5.074;2023-12-14T03:48:16;8.10;99.90
18658;DHT22;9458;50.942;5.074;2023-12-14T03:50:45;8.10;99.90
18658;DHT22;9458;50.942;5.074;2023-12-14T03:53:11;8.20;99.90
18658;DHT22;9458;50.942;5.074;2023-12-14T03:55:38;8.20;99.90
18658;DHT22;9458;50.942;5.074;2023-12-14T03:58:05;8.20;99.90
18658;DHT22;9458;50.942;5.074;2023-12-14T04:00:32;8.20;99.90
18658;DHT22;9458;50.942;5.074;2023-12-14T04:02:59;8.10;99.90
18658;DHT22;9458;50.942;5.074;2023-12-14T04:05:25;8.20;99.90
18658;DHT22;9458;50.942;5.074;2023-12-14T04:07:54;8.20;99.90
18658;DHT22;9458;50.942;5.074;2023-12-14T04:10:20;8.10;99.90
18658;DHT22;9458;50.942;5.074;2023-12-14T04:12:47;7.80;99.90
18658;DHT22;9458;50.942;5.074;2023-12-14T04:15:14;7.80;99.90
18658;DHT22;9458;50.942;5.074;2023-12-14T04:17:41;7.70;99.90
18658;DHT22;9458;50.942;5.074;2023-12-14T04:20:08;7.80;99.90
18658;DHT22;9458;50.942;5.074;2023-12-14T04:22:34;7.70;99.90
18658;DHT22;9458;50.942;5.074;2023-12-14T04:25:03;7.80;99.90
18658;DHT22;9458;50.942;5.074;2023-12-14T04:27:30;7.80;99.90
18658;DHT22;9458;50.942;5.074;2023-12-14T04:29:57;7.70;99.90
18658;DHT22;9458;50.942;5.074;2023-12-14T04:32:24;7.70;99.90
18658;DHT22;9458;50.942;5.074;2023-12-14T04:34:50;7.70;99.90
18658;DHT22;9458;50.942;5.074;2023-12-14T04:37:17;7.60;99.90
18658;DHT22;9458;50.942;5.074;2023-12-14T04:39:44;7.60;99.90
18658;DHT22;9458;50.942;5.074;2023-12-14T04:42:12;7.60;99.90
18658;DHT22;9458;50.942;5.074;2023-12-14T04:44:39;7.50;99.90
18658;DHT22;9458;50.942;5.074;2023-12-14T04:47:06;7.50;99.90
18658;DHT22;9458;50.942;5.074;2023-12-14T04:49:33;7.50;99.90
18658;DHT22;9458;50.942;5.074;2023-12-14T04:52:00;7.50;99.90
18658;DHT22;9458;50.942;5.074;2023-12-14T04:54:27;7.50;99.90
18658;DHT22;9458;50.942;5.074;2023-12-14T04:56:54;7.60;99.90
18658;DHT22;9458;50.942;5.074;2023-12-14T04:59:22;7.50;99.90
18658;DHT22;9458;50.942;5.074;2023-12-14T05:01:49;7.50;99.90
18658;DHT22;9458;50.942;5.074;2023-12-14T05:04:16;7.60;99.90
18658;DHT22;9458;50.942;5.074;2023-12-14T05:06:43;7.60;99.90
18658;DHT22;9458;50.942;5.074;2023-12-14T05:09:09;7.60;99.90
18658;DHT22;9458;50.942;5.074;2023-12-14T05:11:37;7.50;99.90
18658;DHT22;9458;50.942;5.074;2023-12-14T05:14:03;7.50;99.90
18658;DHT22;9458;50.942;5.074;2023-12-14T05:16:32;7.60;99.90
18658;DHT22;9458;50.942;5.074;2023-12-14T05:18:59;7.60;99.90
18658;DHT22;9458;50.942;5.074;2023-12-14T05:21:26;7.50;99.90
18658;DHT22;9458;50.942;5.074;2023-12-14T05:23:53;7.60;99.90
18658;DHT22;9458;50.942;5.074;2023-12-14T05:26:20;7.70;99.90
18658;DHT22;9458;50.942;5.074;2023-12-14T05:28:46;7.60;99.90
18658;DHT22;9458;50.942;5.074;2023-12-14T05:31:13;7.70;99.90
18658;DHT22;9458;50.942;5.074;2023-12-14T05:33:41;7.60;99.90
18658;DHT22;9458;50.942;5.074;2023-12-14T05:36:08;7.60;99.90
18658;DHT22;9458;50.942;5.074;2023-12-14T05:38:35;7.60;99.90
18658;DHT22;9458;50.942;5.074;2023-12-14T05:41:02;7.60;99.90
18658;DHT22;9458;50.942;5.074;2023-12-14T05:43:29;7.70;99.90
18658;DHT22;9458;50.942;5.074;2023-12-14T05:45:56;7.70;99.90
18658;DHT22;9458;50.942;5.074;2023-12-14T05:48:23;7.70;99.90
18658;DHT22;9458;50.942;5.074;2023-12-14T05:50:53;7.60;99.90
18658;DHT22;9458;50.942;5.074;2023-12-14T05:53:20;7.40;99.90
18658;DHT22;9458;50.942;5.074;2023-12-14T05:55:47;7.50;99.90
18658;DHT22;9458;50.942;5.074;2023-12-14T05:58:14;7.40;99.90
18658;DHT22;9458;50.942;5.074;2023-12-14T06:00:41;7.30;99.90
18658;DHT22;9458;50.942;5.074;2023-12-14T06:03:08;7.30;99.90
18658;DHT22;9458;50.942;5.074;2023-12-14T06:05:35;7.40;99.90
18658;DHT22;9458;50.942;5.074;2023-12-14T06:08:03;7.50;99.90
18658;DHT22;9458;50.942;5.074;2023-12-14T06:10:30;7.40;99.90
18658;DHT22;9458;50.942;5.074;2023-12-14T06:12:58;7.30;99.90
18658;DHT22;9458;50.942;5.074;2023-12-14T06:15:24;7.30;99.90
18658;DHT22;9458;50.942;5.074;2023-12-14T06:17:51;7.30;99.90
18658;DHT22;9458;50.942;5.074;2023-12-14T06:20:18;7.40;99.90
18658;DHT22;9458;50.942;5.074;2023-12-14T06:22:45;7.30;99.90
18658;DHT22;9458;50.942;5.074;2023-12-14T06:25:13;7.30;99.90
18658;DHT22;9458;50.942;5.074;2023-12-14T06:27:41;7.30;99.90
18658;DHT22;9458;50.942;5.074;2023-12-14T06:30:08;7.40;99.90
18658;DHT22;9458;50.942;5.074;2023-12-14T06:32:36;7.30;99.90
18658;DHT22;9458;50.942;5.074;2023-12-14T06:35:03;7.30;99.90
18658;DHT22;9458;50.942;5.074;2023-12-14T06:37:30;7.20;99.90
18658;DHT22;9458;50.942;5.074;2023-12-14T06:39:57;7.20;99.90
18658;DHT22;9458;50.942;5.074;2023-12-14T06:42:26;7.20;99.90
18658;DHT22;9458;50.942;5.074;2023-12-14T06:44:53;7.30;99.90
18658;DHT22;9458;50.942;5.074;2023-12-14T06:47:20;7.40;99.90
18658;DHT22;9458;50.942;5.074;2023-12-14T06:49:47;7.40;99.90
18658;DHT22;9458;50.942;5.074;2023-12-14T06:52:15;7.30;99.90
18658;DHT22;9458;50.942;5.074;2023-12-14T06:54:42;7.30;99.90
18658;DHT22;9458;50.942;5.074;2023-12-14T06:57:09;7.30;99.90
18658;DHT22;9458;50.942;5.074;2023-12-14T06:59:37;7.30;99.90
18658;DHT22;9458;50.942;5.074;2023-12-14T07:02:05;7.20;99.90
18658;DHT22;9458;50.942;5.074;2023-12-14T07:04:32;7.10;99.90
18658;DHT22;9458;50.942;5.074;2023-12-14T07:06:59;7.20;99.90
18658;DHT22;9458;50.942;5.074;2023-12-14T07:09:26;7.20;99.90
18658;DHT22;9458;50.942;5.074;2023-12-14T07:11:53;7.20;99.90
18658;DHT22;9458;50.942;5.074;2023-12-14T07:14:20;7.20;99.90
18658;DHT22;9458;50.942;5.074;2023-12-14T07:16:48;7.10;99.90
18658;DHT22;9458;50.942;5.074;2023-12-14T07:19:15;7.20;99.90
18658;DHT22;9458;50.942;5.074;2023-12-14T07:21:41;7.20;99.90
18658;DHT22;9458;50.942;5.074;2023-12-14T07:24:07;7.20;99.90
18658;DHT22;9458;50.942;5.074;2023-12-14T07:26:34;7.20;99.90
18658;DHT22;9458;50.942;5.074;2023-12-14T07:29:01;7.20;99.90
18658;DHT22;9458;50.942;5.074;2023-12-14T07:31:28;7.30;99.90
18658;DHT22;9458;50.942;5.074;2023-12-14T07:33:57;7.30;99.90
18658;DHT22;9458;50.942;5.074;2023-12-14T07:36:24;7.40;99.90
18658;DHT22;9458;50.942;5.074;2023-12-14T07:38:51;7.40;99.90
18658;DHT22;9458;50.942;5.074;2023-12-14T07:41:18;7.40;99.90
18658;DHT22;9458;50.942;5.074;2023-12-14T07:43:44;7.30;99.90
18658;DHT22;9458;50.942;5.074;2023-12-14T07:46:11;7.40;99.90
18658;DHT22;9458;50.942;5.074;2023-12-14T07:48:38;7.30;99.90
18658;DHT22;9458;50.942;5.074;2023-12-14T07:51:07;7.30;99.90
18658;DHT22;9458;50.942;5.074;2023-12-14T07:53:34;7.30;99.90
18658;DHT22;9458;50.942;5.074;2023-12-14T07:56:00;7.30;99.90
18658;DHT22;9458;50.942;5.074;2023-12-14T07:58:28;7.40;99.90
18658;DHT22;9458;50.942;5.074;2023-12-14T08:00:55;7.40;99.90
18658;DHT22;9458;50.942;5.074;2023-12-14T08:03:22;7.40;99.90
18658;DHT22;9458;50.942;5.074;2023-12-14T08:05:49;7.40;99.90
18658;DHT22;9458;50.942;5.074;2023-12-14T08:08:18;7.40;99.90
18658;DHT22;9458;50.942;5.074;2023-12-14T08:10:45;7.40;99.90
18658;DHT22;9458;50.942;5.074;2023-12-14T08:13:11;7.30;99.90
18658;DHT22;9458;50.942;5.074;2023-12-14T08:15:39;7.40;99.90
18658;DHT22;9458;50.942;5.074;2023-12-14T08:18:06;7.50;99.90
18658;DHT22;9458;50.942;5.074;2023-12-14T08:20:33;7.60;99.90
18658;DHT22;9458;50.942;5.074;2023-12-14T08:23:00;7.60;99.90
18658;DHT22;9458;50.942;5.074;2023-12-14T08:25:29;7.50;99.90
18658;DHT22;9458;50.942;5.074;2023-12-14T08:27:56;7.50;99.90
18658;DHT22;9458;50.942;5.074;2023-12-14T08:30:22;7.50;99.90
18658;DHT22;9458;50.942;5.074;2023-12-14T08:32:50;7.60;99.90
18658;DHT22;9458;50.942;5.074;2023-12-14T08:35:16;7.60;99.90
18658;DHT22;9458;50.942;5.074;2023-12-14T08:37:43;7.60;99.90
18658;DHT22;9458;50.942;5.074;2023-12-14T08:40:11;7.60;99.90
18658;DHT22;9458;50.942;5.074;2023-12-14T08:42:40;7.60;99.90
18658;DHT22;9458;50.942;5.074;2023-12-14T08:45:07;7.70;99.90
18658;DHT22;9458;50.942;5.074;2023-12-14T08:47:36;7.60;99.90
18658;DHT22;9458;50.942;5.074;2023-12-14T08:50:04;7.60;99.90
18658;DHT22;9458;50.942;5.074;2023-12-14T08:52:30;7.70;99.90
18658;DHT22;9458;50.942;5.074;2023-12-14T08:54:57;7.70;99.90
18658;DHT22;9458;50.942;5.074;2023-12-14T08:57:24;7.70;99.90
18658;DHT22;9458;50.942;5.074;2023-12-14T08:59:53;7.70;99.90
18658;DHT22;9458;50.942;5.074;2023-12-14T09:02:20;7.60;99.90
18658;DHT22;9458;50.942;5.074;2023-12-14T09:04:47;7.60;99.90
18658;DHT22;9458;50.942;5.074;2023-12-14T09:07:14;7.60;99.90
18658;DHT22;9458;50.942;5.074;2023-12-14T09:09:40;7.50;99.90
18658;DHT22;9458;50.942;5.074;2023-12-14T09:12:07;7.40;99.90
18658;DHT22;9458;50.942;5.074;2023-12-14T09:14:34;7.60;99.90
18658;DHT22;9458;50.942;5.074;2023-12-14T09:17:03;7.70;99.90
18658;DHT22;9458;50.942;5.074;2023-12-14T09:19:30;7.90;99.90
18658;DHT22;9458;50.942;5.074;2023-12-14T09:21:57;8.00;99.90
18658;DHT22;9458;50.942;5.074;2023-12-14T09:24:24;8.20;99.90
18658;DHT22;9458;50.942;5.074;2023-12-14T09:26:50;8.30;99.90
18658;DHT22;9458;50.942;5.074;2023-12-14T09:29:17;8.40;99.90
18658;DHT22;9458;50.942;5.074;2023-12-14T09:31:45;8.40;99.90
18658;DHT22;9458;50.942;5.074;2023-12-14T09:34:14;8.50;99.90
18658;DHT22;9458;50.942;5.074;2023-12-14T09:36:40;8.50;99.90
18658;DHT22;9458;50.942;5.074;2023-12-14T09:39:07;8.60;99.90
18658;DHT22;9458;50.942;5.074;2023-12-14T09:41:35;8.60;99.90
18658;DHT22;9458;50.942;5.074;2023-12-14T09:44:03;8.50;99.90
18658;DHT22;9458;50.942;5.074;2023-12-14T09:46:30;8.70;99.90
18658;DHT22;9458;50.942;5.074;2023-12-14T09:48:58;8.80;99.90
18658;DHT22;9458;50.942;5.074;2023-12-14T09:51:27;8.70;99.90
18658;DHT22;9458;50.942;5.074;2023-12-14T09:53:54;8.70;99.90
18658;DHT22;9458;50.942;5.074;2023-12-14T09:56:23;8.80;99.90
18658;DHT22;9458;50.942;5.074;2023-12-14T09:58:50;8.60;99.90
18658;DHT22;9458;50.942;5.074;2023-12-14T10:01:23;8.60;99.90
18658;DHT22;9458;50.942;5.074;2023-12-14T10:03:50;8.60;99.90
18658;DHT22;9458;50.942;5.074;2023-12-14T10:06:17;8.40;99.90
18658;DHT22;9458;50.942;5.074;2023-12-14T10:08:54;8.30;99.90
18658;DHT22;9458;50.942;5.074;2023-12-14T10:11:22;8.30;99.90
18658;DHT22;9458;50.942;5.074;2023-12-14T10:13:49;8.20;99.90
18658;DHT22;9458;50.942;5.074;2023-12-14T10:16:26;8.20;99.90
18658;DHT22;9458;50.942;5.074;2023-12-14T10:18:53;8.30;99.90
18658;DHT22;9458;50.942;5.074;2023-12-14T10:21:20;8.20;99.90
18658;DHT22;9458;50.942;5.074;2023-12-14T10:23:47;8.00;99.90
18658;DHT22;9458;50.942;5.074;2023-12-14T10:26:15;8.00;99.90
18658;DHT22;9458;50.942;5.074;2023-12-14T10:28:42;8.10;99.90
18658;DHT22;9458;50.942;5.074;2023-12-14T10:31:09;8.20;99.90
18658;DHT22;9458;50.942;5.074;2023-12-14T10:33:36;8.30;99.90
18658;DHT22;9458;50.942;5.074;2023-12-14T10:36:03;8.50;99.90
18658;DHT22;9458;50.942;5.074;2023-12-14T10:38:32;8.80;99.90
18658;DHT22;9458;50.942;5.074;2023-12-14T10:41:00;8.70;99.90
18658;DHT22;9458;50.942;5.074;2023-12-14T10:43:30;8.60;99.90
18658;DHT22;9458;50.942;5.074;2023-12-14T10:45:58;8.90;99.90
18658;DHT22;9458;50.942;5.074;2023-12-14T10:48:25;9.00;99.90
18658;DHT22;9458;50.942;5.074;2023-12-14T10:50:53;8.90;99.90
18658;DHT22;9458;50.942;5.074;2023-12-14T10:53:20;8.90;99.90
18658;DHT22;9458;50.942;5.074;2023-12-14T10:55:47;8.80;99.90
18658;DHT22;9458;50.942;5.074;2023-12-14T10:58:17;8.70;99.90
18658;DHT22;9458;50.942;5.074;2023-12-14T11:00:50;8.60;99.90
18658;DHT22;9458;50.942;5.074;2023-12-14T11:03:24;8.60;99.90
18658;DHT22;9458;50.942;5.074;2023-12-14T11:05:52;8.70;99.90
18658;DHT22;9458;50.942;5.074;2023-12-14T11:08:19;8.80;99.90
18658;DHT22;9458;50.942;5.074;2023-12-14T11:10:52;8.80;99.90
18658;DHT22;9458;50.942;5.074;2023-12-14T11:13:21;8.80;99.90
18658;DHT22;9458;50.942;5.074;2023-12-14T11:15:48;8.80;99.90
18658;DHT22;9458;50.942;5.074;2023-12-14T11:18:21;8.70;99.90
18658;DHT22;9458;50.942;5.074;2023-12-14T11:20:47;8.80;99.90
18658;DHT22;9458;50.942;5.074;2023-12-14T11:23:14;8.90;99.90
18658;DHT22;9458;50.942;5.074;2023-12-14T11:25:42;8.90;99.90
18658;DHT22;9458;50.942;5.074;2023-12-14T11:28:09;8.60;99.90
18658;DHT22;9458;50.942;5.074;2023-12-14T11:30:38;8.60;99.90
18658;DHT22;9458;50.942;5.074;2023-12-14T11:33:05;8.60;99.90
18658;DHT22;9458;50.942;5.074;2023-12-14T11:35:34;8.50;99.90
18658;DHT22;9458;50.942;5.074;2023-12-14T11:38:01;8.40;99.90
18658;DHT22;9458;50.942;5.074;2023-12-14T11:40:35;8.40;99.90
18658;DHT22;9458;50.942;5.074;2023-12-14T11:43:02;8.40;99.90
18658;DHT22;9458;50.942;5.074;2023-12-14T11:45:32;8.50;99.90
18658;DHT22;9458;50.942;5.074;2023-12-14T11:47:59;8.40;99.90
18658;DHT22;9458;50.942;5.074;2023-12-14T11:50:27;8.40;99.90
18658;DHT22;9458;50.942;5.074;2023-12-14T11:52:56;8.40;99.90
18658;DHT22;9458;50.942;5.074;2023-12-14T11:55:23;8.40;99.90
18658;DHT22;9458;50.942;5.074;2023-12-14T11:57:50;8.50;99.90
18658;DHT22;9458;50.942;5.074;2023-12-14T12:00:18;8.40;99.90
18658;DHT22;9458;50.942;5.074;2023-12-14T12:02:49;8.50;99.90
18658;DHT22;9458;50.942;5.074;2023-12-14T12:05:16;8.50;99.90
18658;DHT22;9458;50.942;5.074;2023-12-14T12:07:44;8.40;99.90
18658;DHT22;9458;50.942;5.074;2023-12-14T12:10:12;8.60;99.90
18658;DHT22;9458;50.942;5.074;2023-12-14T12:12:39;8.60;99.90
18658;DHT22;9458;50.942;5.074;2023-12-14T12:15:07;8.60;99.90
18658;DHT22;9458;50.942;5.074;2023-12-14T12:17:33;8.60;99.90
18658;DHT22;9458;50.942;5.074;2023-12-14T12:20:04;8.60;99.90
18658;DHT22;9458;50.942;5.074;2023-12-14T12:22:31;8.60;99.90
18658;DHT22;9458;50.942;5.074;2023-12-14T12:24:58;8.60;99.90
18658;DHT22;9458;50.942;5.074;2023-12-14T12:27:28;8.70;99.90
18658;DHT22;9458;50.942;5.074;2023-12-14T12:29:54;8.60;99.90
18658;DHT22;9458;50.942;5.074;2023-12-14T12:32:21;8.60;99.90
18658;DHT22;9458;50.942;5.074;2023-12-14T12:34:48;8.70;99.90
18658;DHT22;9458;50.942;5.074;2023-12-14T12:37:15;8.50;99.90
18658;DHT22;9458;50.942;5.074;2023-12-14T12:39:42;8.50;99.90
18658;DHT22;9458;50.942;5.074;2023-12-14T12:42:09;8.60;99.90
18658;DHT22;9458;50.942;5.074;2023-12-14T12:44:37;8.60;99.90
18658;DHT22;9458;50.942;5.074;2023-12-14T12:47:04;8.70;99.90
18658;DHT22;9458;50.942;5.074;2023-12-14T12:49:31;8.80;99.90
18658;DHT22;9458;50.942;5.074;2023-12-14T12:51:58;8.80;99.90
18658;DHT22;9458;50.942;5.074;2023-12-14T12:54:24;9.00;99.90
18658;DHT22;9458;50.942;5.074;2023-12-14T12:56:52;8.90;99.90
18658;DHT22;9458;50.942;5.074;2023-12-14T12:59:19;8.70;99.90
18658;DHT22;9458;50.942;5.074;2023-12-14T13:01:47;8.70;99.90
18658;DHT22;9458;50.942;5.074;2023-12-14T13:04:18;8.70;99.90
18658;DHT22;9458;50.942;5.074;2023-12-14T13:06:46;8.60;99.90
18658;DHT22;9458;50.942;5.074;2023-12-14T13:09:13;8.60;99.90
18658;DHT22;9458;50.942;5.074;2023-12-14T13:11:41;8.70;99.90
18658;DHT22;9458;50.942;5.074;2023-12-14T13:14:08;8.50;99.90
18658;DHT22;9458;50.942;5.074;2023-12-14T13:16:35;8.60;99.90
18658;DHT22;9458;50.942;5.074;2023-12-14T13:19:04;8.70;99.90
18658;DHT22;9458;50.942;5.074;2023-12-14T13:21:32;8.60;99.90
18658;DHT22;9458;50.942;5.074;2023-12-14T13:23:59;8.50;99.90
18658;DHT22;9458;50.942;5.074;2023-12-14T13:26:26;8.50;99.90
18658;DHT22;9458;50.942;5.074;2023-12-14T13:28:53;8.50;99.90
18658;DHT22;9458;50.942;5.074;2023-12-14T13:31:20;8.60;99.90
18658;DHT22;9458;50.942;5.074;2023-12-14T13:33:47;8.60;99.90
18658;DHT22;9458;50.942;5.074;2023-12-14T13:36:15;8.70;99.90
18658;DHT22;9458;50.942;5.074;2023-12-14T13:38:44;8.70;99.90
18658;DHT22;9458;50.942;5.074;2023-12-14T13:41:11;8.70;99.90
18658;DHT22;9458;50.942;5.074;2023-12-14T13:43:38;8.60;99.90
18658;DHT22;9458;50.942;5.074;2023-12-14T13:46:05;8.70;99.90
18658;DHT22;9458;50.942;5.074;2023-12-14T13:48:31;8.60;99.90
18658;DHT22;9458;50.942;5.074;2023-12-14T13:50:58;8.60;99.90
18658;DHT22;9458;50.942;5.074;2023-12-14T13:53:26;8.60;99.90
18658;DHT22;9458;50.942;5.074;2023-12-14T13:55:53;8.60;99.90
18658;DHT22;9458;50.942;5.074;2023-12-14T13:58:20;8.50;99.90
18658;DHT22;9458;50.942;5.074;2023-12-14T14:00:47;8.60;99.90
18658;DHT22;9458;50.942;5.074;2023-12-14T14:03:14;8.60;99.90
18658;DHT22;9458;50.942;5.074;2023-12-14T14:05:41;8.60;99.90
18658;DHT22;9458;50.942;5.074;2023-12-14T14:08:09;8.60;99.90
18658;DHT22;9458;50.942;5.074;2023-12-14T14:10:38;8.60;99.90
18658;DHT22;9458;50.942;5.074;2023-12-14T14:13:05;8.60;99.90
18658;DHT22;9458;50.942;5.074;2023-12-14T14:15:32;8.50;99.90
18658;DHT22;9458;50.942;5.074;2023-12-14T14:17:58;8.50;99.90
18658;DHT22;9458;50.942;5.074;2023-12-14T14:20:26;8.50;99.90
18658;DHT22;9458;50.942;5.074;2023-12-14T14:22:53;8.50;99.90
18658;DHT22;9458;50.942;5.074;2023-12-14T14:25:20;8.50;99.90
18658;DHT22;9458;50.942;5.074;2023-12-14T14:27:48;8.50;99.90
18658;DHT22;9458;50.942;5.074;2023-12-14T14:30:15;8.50;99.90
18658;DHT22;9458;50.942;5.074;2023-12-14T14:32:43;8.50;99.90
18658;DHT22;9458;50.942;5.074;2023-12-14T14:35:09;8.50;99.90
18658;DHT22;9458;50.942;5.074;2023-12-14T14:37:36;8.50;99.90
18658;DHT22;9458;50.942;5.074;2023-12-14T14:40:03;8.40;99.90
18658;DHT22;9458;50.942;5.074;2023-12-14T14:42:30;8.40;99.90
18658;DHT22;9458;50.942;5.074;2023-12-14T14:44:58;8.40;99.90
18658;DHT22;9458;50.942;5.074;2023-12-14T14:47:26;8.30;99.90
18658;DHT22;9458;50.942;5.074;2023-12-14T14:49:53;8.40;99.90
18658;DHT22;9458;50.942;5.074;2023-12-14T14:52:28;8.40;99.90
18658;DHT22;9458;50.942;5.074;2023-12-14T14:54:55;8.50;99.90
18658;DHT22;9458;50.942;5.074;2023-12-14T14:57:22;8.40;99.90
18658;DHT22;9458;50.942;5.074;2023-12-14T14:59:48;8.40;99.90
18658;DHT22;9458;50.942;5.074;2023-12-14T15:02:17;8.30;99.90
18658;DHT22;9458;50.942;5.074;2023-12-14T15:04:44;8.30;99.90
18658;DHT22;9458;50.942;5.074;2023-12-14T15:07:11;8.30;99.90
18658;DHT22;9458;50.942;5.074;2023-12-14T15:09:38;8.30;99.90
18658;DHT22;9458;50.942;5.074;2023-12-14T15:12:05;8.30;99.90
18658;DHT22;9458;50.942;5.074;2023-12-14T15:14:32;8.30;99.90
18658;DHT22;9458;50.942;5.074;2023-12-14T15:16:58;8.40;99.90
18658;DHT22;9458;50.942;5.074;2023-12-14T15:19:27;8.40;99.90
18658;DHT22;9458;50.942;5.074;2023-12-14T15:21:54;8.50;99.90
18658;DHT22;9458;50.942;5.074;2023-12-14T15:24:21;8.60;99.90
18658;DHT22;9458;50.942;5.074;2023-12-14T15:26:48;8.50;99.90
18658;DHT22;9458;50.942;5.074;2023-12-14T15:29:15;8.50;99.90
18658;DHT22;9458;50.942;5.074;2023-12-14T15:31:42;8.50;99.90
18658;DHT22;9458;50.942;5.074;2023-12-14T15:34:09;8.40;99.90
18658;DHT22;9458;50.942;5.074;2023-12-14T15:36:37;8.50;99.90
18658;DHT22;9458;50.942;5.074;2023-12-14T15:39:04;8.50;99.90
18658;DHT22;9458;50.942;5.074;2023-12-14T15:41:31;8.40;99.90
18658;DHT22;9458;50.942;5.074;2023-12-14T15:43:58;8.40;99.90
18658;DHT22;9458;50.942;5.074;2023-12-14T15:46:25;8.50;99.90
18658;DHT22;9458;50.942;5.074;2023-12-14T15:48:51;8.40;99.90
18658;DHT22;9458;50.942;5.074;2023-12-14T15:51:18;8.40;99.90
18658;DHT22;9458;50.942;5.074;2023-12-14T15:53:46;8.40;99.90
18658;DHT22;9458;50.942;5.074;2023-12-14T15:56:15;8.40;99.90
18658;DHT22;9458;50.942;5.074;2023-12-14T15:58:41;8.40;99.90
18658;DHT22;9458;50.942;5.074;2023-12-14T16:01:09;8.40;99.90